sensor_id;sensor_type;location;lat;lon;timestamp;temperature;humidity
81192;DHT22;70665;47.652;-2.730;2023-07-29T00:01:36;19.90;86.40
81192;DHT22;70665;47.652;-2.730;2023-07-29T00:04:02;20.00;87.30
81192;DHT22;70665;47.652;-2.730;2023-07-29T00:06:27;20.00;87.50
81192;DHT22;70665;47.652;-2.730;2023-07-29T00:08:53;20.00;85.70
81192;DHT22;70665;47.652;-2.730;2023-07-29T00:11:19;20.00;85.90
81192;DHT22;70665;47.652;-2.730;2023-07-29T00:13:44;20.00;87.10
81192;DHT22;70665;47.652;-2.730;2023-07-29T00:16:10;20.10;85.90
81192;DHT22;70665;47.652;-2.730;2023-07-29T00:18:36;20.10;85.90
81192;DHT22;70665;47.652;-2.730;2023-07-29T00:21:01;20.00;86.30
81192;DHT22;70665;47.652;-2.730;2023-07-29T00:23:27;20.00;86.40
81192;DHT22;70665;47.652;-2.730;2023-07-29T00:25:53;20.10;85.60
81192;DHT22;70665;47.652;-2.730;2023-07-29T00:28:18;20.10;86.20
81192;DHT22;70665;47.652;-2.730;2023-07-29T00:30:44;20.10;86.20
81192;DHT22;70665;47.652;-2.730;2023-07-29T00:33:10;20.00;87.70
81192;DHT22;70665;47.652;-2.730;2023-07-29T00:35:35;20.10;88.60
81192;DHT22;70665;47.652;-2.730;2023-07-29T00:38:01;20.00;87.60
81192;DHT22;70665;47.652;-2.730;2023-07-29T00:40:28;19.90;88.40
81192;DHT22;70665;47.652;-2.730;2023-07-29T00:42:54;19.90;89.50
81192;DHT22;70665;47.652;-2.730;2023-07-29T00:45:20;19.80;89.90
81192;DHT22;70665;47.652;-2.730;2023-07-29T00:47:46;19.60;90.40
81192;DHT22;70665;47.652;-2.730;2023-07-29T00:50:14;19.70;91.10
81192;DHT22;70665;47.652;-2.730;2023-07-29T00:52:40;19.50;90.90
81192;DHT22;70665;47.652;-2.730;2023-07-29T00:55:06;19.60;91.40
81192;DHT22;70665;47.652;-2.730;2023-07-29T00:57:33;19.50;91.10
81192;DHT22;70665;47.652;-2.730;2023-07-29T00:59:59;19.50;91.60
81192;DHT22;70665;47.652;-2.730;2023-07-29T01:02:26;19.60;91.70
81192;DHT22;70665;47.652;-2.730;2023-07-29T01:04:56;19.50;91.90
81192;DHT22;70665;47.652;-2.730;2023-07-29T01:13:10;19.50;91.60
81192;DHT22;70665;47.652;-2.730;2023-07-29T01:15:58;19.50;90.50
81192;DHT22;70665;47.652;-2.730;2023-07-29T01:18:31;19.50;90.90
81192;DHT22;70665;47.652;-2.730;2023-07-29T01:21:04;19.60;91.00
81192;DHT22;70665;47.652;-2.730;2023-07-29T01:23:31;19.60;90.30
81192;DHT22;70665;47.652;-2.730;2023-07-29T01:25:57;19.50;89.40
81192;DHT22;70665;47.652;-2.730;2023-07-29T01:28:23;19.50;90.10
81192;DHT22;70665;47.652;-2.730;2023-07-29T01:30:51;19.70;90.20
81192;DHT22;70665;47.652;-2.730;2023-07-29T01:33:34;19.60;90.90
81192;DHT22;70665;47.652;-2.730;2023-07-29T01:36:03;19.60;89.60
81192;DHT22;70665;47.652;-2.730;2023-07-29T01:38:36;19.70;90.10
81192;DHT22;70665;47.652;-2.730;2023-07-29T01:41:05;19.70;90.10
81192;DHT22;70665;47.652;-2.730;2023-07-29T01:43:32;19.70;89.30
81192;DHT22;70665;47.652;-2.730;2023-07-29T01:45:58;19.70;88.90
81192;DHT22;70665;47.652;-2.730;2023-07-29T01:48:24;19.80;89.10
81192;DHT22;70665;47.652;-2.730;2023-07-29T01:50:50;19.80;89.30
81192;DHT22;70665;47.652;-2.730;2023-07-29T01:53:15;19.80;90.30
81192;DHT22;70665;47.652;-2.730;2023-07-29T01:55:41;19.70;89.60
81192;DHT22;70665;47.652;-2.730;2023-07-29T01:58:07;19.80;89.40
81192;DHT22;70665;47.652;-2.730;2023-07-29T02:00:33;19.60;91.20
81192;DHT22;70665;47.652;-2.730;2023-07-29T02:02:59;19.60;90.90
81192;DHT22;70665;47.652;-2.730;2023-07-29T02:05:24;19.50;91.30
81192;DHT22;70665;47.652;-2.730;2023-07-29T02:07:50;19.30;91.90
81192;DHT22;70665;47.652;-2.730;2023-07-29T02:10:16;19.20;91.50
81192;DHT22;70665;47.652;-2.730;2023-07-29T02:12:41;19.20;90.80
81192;DHT22;70665;47.652;-2.730;2023-07-29T02:15:07;19.10;91.10
81192;DHT22;70665;47.652;-2.730;2023-07-29T02:17:34;19.10;91.70
81192;DHT22;70665;47.652;-2.730;2023-07-29T02:20:00;19.00;90.60
81192;DHT22;70665;47.652;-2.730;2023-07-29T02:22:25;19.10;91.00
81192;DHT22;70665;47.652;-2.730;2023-07-29T02:24:51;19.00;90.60
81192;DHT22;70665;47.652;-2.730;2023-07-29T02:27:16;19.00;91.10
81192;DHT22;70665;47.652;-2.730;2023-07-29T02:29:42;19.00;90.60
81192;DHT22;70665;47.652;-2.730;2023-07-29T02:32:08;19.00;91.60
81192;DHT22;70665;47.652;-2.730;2023-07-29T02:34:34;19.00;90.60
81192;DHT22;70665;47.652;-2.730;2023-07-29T02:36:59;19.10;90.70
81192;DHT22;70665;47.652;-2.730;2023-07-29T02:39:25;19.00;92.20
81192;DHT22;70665;47.652;-2.730;2023-07-29T02:41:51;19.10;91.50
81192;DHT22;70665;47.652;-2.730;2023-07-29T02:44:17;19.00;92.50
81192;DHT22;70665;47.652;-2.730;2023-07-29T02:46:43;19.00;92.90
81192;DHT22;70665;47.652;-2.730;2023-07-29T02:49:08;19.00;94.60
81192;DHT22;70665;47.652;-2.730;2023-07-29T02:51:34;19.00;93.70
81192;DHT22;70665;47.652;-2.730;2023-07-29T02:54:00;19.00;93.30
81192;DHT22;70665;47.652;-2.730;2023-07-29T02:56:25;19.10;92.50
81192;DHT22;70665;47.652;-2.730;2023-07-29T02:58:51;19.10;91.70
81192;DHT22;70665;47.652;-2.730;2023-07-29T03:01:17;19.10;92.30
81192;DHT22;70665;47.652;-2.730;2023-07-29T03:03:43;19.20;92.30
81192;DHT22;70665;47.652;-2.730;2023-07-29T03:06:10;19.10;92.70
81192;DHT22;70665;47.652;-2.730;2023-07-29T03:08:36;19.10;93.50
81192;DHT22;70665;47.652;-2.730;2023-07-29T03:11:13;19.10;93.40
81192;DHT22;70665;47.652;-2.730;2023-07-29T03:13:40;19.20;93.20
81192;DHT22;70665;47.652;-2.730;2023-07-29T03:16:11;19.10;92.50
81192;DHT22;70665;47.652;-2.730;2023-07-29T03:18:37;19.00;92.30
81192;DHT22;70665;47.652;-2.730;2023-07-29T03:21:03;19.10;93.70
81192;DHT22;70665;47.652;-2.730;2023-07-29T03:23:30;19.10;92.00
81192;DHT22;70665;47.652;-2.730;2023-07-29T03:25:57;19.10;91.90
81192;DHT22;70665;47.652;-2.730;2023-07-29T03:28:25;19.10;92.90
81192;DHT22;70665;47.652;-2.730;2023-07-29T03:30:53;19.00;91.70
81192;DHT22;70665;47.652;-2.730;2023-07-29T03:33:18;19.10;93.40
81192;DHT22;70665;47.652;-2.730;2023-07-29T03:35:44;19.10;94.20
81192;DHT22;70665;47.652;-2.730;2023-07-29T03:38:11;19.20;92.00
81192;DHT22;70665;47.652;-2.730;2023-07-29T03:40:40;19.20;91.80
81192;DHT22;70665;47.652;-2.730;2023-07-29T03:43:06;19.20;91.80
81192;DHT22;70665;47.652;-2.730;2023-07-29T03:45:32;19.20;91.90
81192;DHT22;70665;47.652;-2.730;2023-07-29T03:47:58;19.30;91.60
81192;DHT22;70665;47.652;-2.730;2023-07-29T03:50:23;19.20;93.80
81192;DHT22;70665;47.652;-2.730;2023-07-29T03:52:50;19.30;93.20
81192;DHT22;70665;47.652;-2.730;2023-07-29T03:55:15;19.20;92.80
81192;DHT22;70665;47.652;-2.730;2023-07-29T03:57:41;19.20;91.70
81192;DHT22;70665;47.652;-2.730;2023-07-29T04:00:07;19.20;93.60
81192;DHT22;70665;47.652;-2.730;2023-07-29T04:02:32;19.20;92.20
81192;DHT22;70665;47.652;-2.730;2023-07-29T04:04:58;19.10;92.40
81192;DHT22;70665;47.652;-2.730;2023-07-29T04:07:23;19.20;92.50
81192;DHT22;70665;47.652;-2.730;2023-07-29T04:09:49;19.20;93.20
81192;DHT22;70665;47.652;-2.730;2023-07-29T04:12:15;19.10;92.00
81192;DHT22;70665;47.652;-2.730;2023-07-29T04:14:41;19.10;91.90
81192;DHT22;70665;47.652;-2.730;2023-07-29T04:17:07;19.20;91.10
81192;DHT22;70665;47.652;-2.730;2023-07-29T04:19:33;19.20;91.80
81192;DHT22;70665;47.652;-2.730;2023-07-29T04:21:58;19.10;92.20
81192;DHT22;70665;47.652;-2.730;2023-07-29T04:24:24;19.10;90.70
81192;DHT22;70665;47.652;-2.730;2023-07-29T04:26:50;19.10;90.90
81192;DHT22;70665;47.652;-2.730;2023-07-29T04:29:16;19.00;91.50
81192;DHT22;70665;47.652;-2.730;2023-07-29T04:31:42;19.00;92.30
81192;DHT22;70665;47.652;-2.730;2023-07-29T04:34:07;19.00;92.70
81192;DHT22;70665;47.652;-2.730;2023-07-29T04:36:33;19.10;91.80
81192;DHT22;70665;47.652;-2.730;2023-07-29T04:38:59;19.10;92.10
81192;DHT22;70665;47.652;-2.730;2023-07-29T04:41:24;19.10;91.50
81192;DHT22;70665;47.652;-2.730;2023-07-29T04:43:50;19.10;91.00
81192;DHT22;70665;47.652;-2.730;2023-07-29T04:46:16;19.10;90.90
81192;DHT22;70665;47.652;-2.730;2023-07-29T04:48:41;19.10;90.80
81192;DHT22;70665;47.652;-2.730;2023-07-29T04:51:07;19.00;91.00
81192;DHT22;70665;47.652;-2.730;2023-07-29T04:53:32;19.10;92.10
81192;DHT22;70665;47.652;-2.730;2023-07-29T04:56:00;19.10;91.50
81192;DHT22;70665;47.652;-2.730;2023-07-29T04:58:26;19.10;91.00
81192;DHT22;70665;47.652;-2.730;2023-07-29T05:00:54;19.20;91.00
81192;DHT22;70665;47.652;-2.730;2023-07-29T05:03:19;19.20;91.30
81192;DHT22;70665;47.652;-2.730;2023-07-29T05:05:45;19.20;90.70
81192;DHT22;70665;47.652;-2.730;2023-07-29T05:08:11;19.20;90.70
81192;DHT22;70665;47.652;-2.730;2023-07-29T05:10:36;19.20;90.80
81192;DHT22;70665;47.652;-2.730;2023-07-29T05:13:02;19.20;91.60
81192;DHT22;70665;47.652;-2.730;2023-07-29T05:15:28;19.30;91.40
81192;DHT22;70665;47.652;-2.730;2023-07-29T05:17:53;19.20;91.80
81192;DHT22;70665;47.652;-2.730;2023-07-29T05:20:19;19.30;90.70
81192;DHT22;70665;47.652;-2.730;2023-07-29T05:22:44;19.20;91.90
81192;DHT22;70665;47.652;-2.730;2023-07-29T05:25:10;19.20;91.40
81192;DHT22;70665;47.652;-2.730;2023-07-29T05:27:36;19.20;91.00
81192;DHT22;70665;47.652;-2.730;2023-07-29T05:30:01;19.20;90.90
81192;DHT22;70665;47.652;-2.730;2023-07-29T05:32:27;19.20;90.40
81192;DHT22;70665;47.652;-2.730;2023-07-29T05:34:53;19.20;91.30
81192;DHT22;70665;47.652;-2.730;2023-07-29T05:37:18;19.20;90.60
81192;DHT22;70665;47.652;-2.730;2023-07-29T05:39:44;19.30;90.50
81192;DHT22;70665;47.652;-2.730;2023-07-29T05:42:10;19.30;90.60
81192;DHT22;70665;47.652;-2.730;2023-07-29T05:44:35;19.30;90.80
81192;DHT22;70665;47.652;-2.730;2023-07-29T05:47:01;19.30;89.90
81192;DHT22;70665;47.652;-2.730;2023-07-29T05:49:27;19.40;90.00
81192;DHT22;70665;47.652;-2.730;2023-07-29T05:51:52;19.30;89.90
81192;DHT22;70665;47.652;-2.730;2023-07-29T05:54:18;19.50;90.30
81192;DHT22;70665;47.652;-2.730;2023-07-29T05:56:44;19.60;89.30
81192;DHT22;70665;47.652;-2.730;2023-07-29T05:59:10;19.60;90.40
81192;DHT22;70665;47.652;-2.730;2023-07-29T06:01:35;19.50;89.40
81192;DHT22;70665;47.652;-2.730;2023-07-29T06:04:01;19.50;90.30
81192;DHT22;70665;47.652;-2.730;2023-07-29T06:06:27;19.50;88.80
81192;DHT22;70665;47.652;-2.730;2023-07-29T06:08:53;19.50;89.40
81192;DHT22;70665;47.652;-2.730;2023-07-29T06:11:18;19.60;88.80
81192;DHT22;70665;47.652;-2.730;2023-07-29T06:13:44;19.60;89.60
81192;DHT22;70665;47.652;-2.730;2023-07-29T06:16:10;19.60;89.20
81192;DHT22;70665;47.652;-2.730;2023-07-29T06:18:35;19.50;89.40
81192;DHT22;70665;47.652;-2.730;2023-07-29T06:21:01;19.50;89.60
81192;DHT22;70665;47.652;-2.730;2023-07-29T06:23:26;19.60;88.90
81192;DHT22;70665;47.652;-2.730;2023-07-29T06:25:52;19.60;88.80
81192;DHT22;70665;47.652;-2.730;2023-07-29T06:28:18;19.60;88.50
81192;DHT22;70665;47.652;-2.730;2023-07-29T06:30:44;19.60;88.00
81192;DHT22;70665;47.652;-2.730;2023-07-29T06:33:10;19.70;87.30
81192;DHT22;70665;47.652;-2.730;2023-07-29T06:35:35;19.70;86.80
81192;DHT22;70665;47.652;-2.730;2023-07-29T06:38:01;19.70;86.90
81192;DHT22;70665;47.652;-2.730;2023-07-29T06:40:27;19.70;87.00
81192;DHT22;70665;47.652;-2.730;2023-07-29T06:42:52;19.80;86.10
81192;DHT22;70665;47.652;-2.730;2023-07-29T06:45:18;19.90;86.20
81192;DHT22;70665;47.652;-2.730;2023-07-29T06:47:45;20.00;85.00
81192;DHT22;70665;47.652;-2.730;2023-07-29T06:50:10;19.90;85.00
81192;DHT22;70665;47.652;-2.730;2023-07-29T06:52:36;20.00;84.80
81192;DHT22;70665;47.652;-2.730;2023-07-29T06:55:03;19.90;84.50
81192;DHT22;70665;47.652;-2.730;2023-07-29T06:57:29;20.00;84.80
81192;DHT22;70665;47.652;-2.730;2023-07-29T06:59:55;20.10;83.30
81192;DHT22;70665;47.652;-2.730;2023-07-29T07:02:20;20.10;84.30
81192;DHT22;70665;47.652;-2.730;2023-07-29T07:04:46;20.00;83.50
81192;DHT22;70665;47.652;-2.730;2023-07-29T07:07:12;20.10;83.70
81192;DHT22;70665;47.652;-2.730;2023-07-29T07:09:37;20.10;83.40
81192;DHT22;70665;47.652;-2.730;2023-07-29T07:12:03;20.10;83.30
81192;DHT22;70665;47.652;-2.730;2023-07-29T07:14:29;20.10;81.70
81192;DHT22;70665;47.652;-2.730;2023-07-29T07:16:54;20.20;83.10
81192;DHT22;70665;47.652;-2.730;2023-07-29T07:19:20;20.20;82.70
81192;DHT22;70665;47.652;-2.730;2023-07-29T07:21:46;20.30;82.90
81192;DHT22;70665;47.652;-2.730;2023-07-29T07:24:11;20.30;82.60
81192;DHT22;70665;47.652;-2.730;2023-07-29T07:26:37;20.30;81.60
81192;DHT22;70665;47.652;-2.730;2023-07-29T07:29:02;20.40;81.30
81192;DHT22;70665;47.652;-2.730;2023-07-29T07:31:28;20.40;81.70
81192;DHT22;70665;47.652;-2.730;2023-07-29T07:33:54;20.50;80.90
81192;DHT22;70665;47.652;-2.730;2023-07-29T07:36:19;20.40;80.30
81192;DHT22;70665;47.652;-2.730;2023-07-29T07:38:45;20.50;81.00
81192;DHT22;70665;47.652;-2.730;2023-07-29T07:41:10;20.50;81.10
81192;DHT22;70665;47.652;-2.730;2023-07-29T07:43:36;20.60;81.00
81192;DHT22;70665;47.652;-2.730;2023-07-29T07:46:03;20.70;81.30
81192;DHT22;70665;47.652;-2.730;2023-07-29T07:48:29;20.70;78.20
81192;DHT22;70665;47.652;-2.730;2023-07-29T07:50:54;20.60;79.40
81192;DHT22;70665;47.652;-2.730;2023-07-29T07:53:20;20.80;78.90
81192;DHT22;70665;47.652;-2.730;2023-07-29T07:55:46;20.80;78.90
81192;DHT22;70665;47.652;-2.730;2023-07-29T07:58:12;20.80;78.10
81192;DHT22;70665;47.652;-2.730;2023-07-29T08:00:38;20.70;78.10
81192;DHT22;70665;47.652;-2.730;2023-07-29T08:03:04;20.70;78.20
81192;DHT22;70665;47.652;-2.730;2023-07-29T08:05:29;20.90;78.40
81192;DHT22;70665;47.652;-2.730;2023-07-29T08:07:56;21.00;78.00
81192;DHT22;70665;47.652;-2.730;2023-07-29T08:10:22;21.10;78.50
81192;DHT22;70665;47.652;-2.730;2023-07-29T08:12:48;21.10;78.50
81192;DHT22;70665;47.652;-2.730;2023-07-29T08:15:13;21.20;77.50
81192;DHT22;70665;47.652;-2.730;2023-07-29T08:17:39;21.20;77.70
81192;DHT22;70665;47.652;-2.730;2023-07-29T08:20:05;21.30;77.60
81192;DHT22;70665;47.652;-2.730;2023-07-29T08:22:32;21.40;76.90
81192;DHT22;70665;47.652;-2.730;2023-07-29T08:24:57;21.30;76.30
81192;DHT22;70665;47.652;-2.730;2023-07-29T08:27:23;21.30;76.30
81192;DHT22;70665;47.652;-2.730;2023-07-29T08:29:49;21.40;77.30
81192;DHT22;70665;47.652;-2.730;2023-07-29T08:32:14;21.40;74.40
81192;DHT22;70665;47.652;-2.730;2023-07-29T08:34:40;21.40;76.60
81192;DHT22;70665;47.652;-2.730;2023-07-29T08:37:06;21.30;73.90
81192;DHT22;70665;47.652;-2.730;2023-07-29T08:39:31;21.30;71.10
81192;DHT22;70665;47.652;-2.730;2023-07-29T08:42:11;21.50;70.00
81192;DHT22;70665;47.652;-2.730;2023-07-29T08:44:42;21.50;72.90
81192;DHT22;70665;47.652;-2.730;2023-07-29T08:47:08;21.60;74.60
81192;DHT22;70665;47.652;-2.730;2023-07-29T08:49:34;21.60;75.40
81192;DHT22;70665;47.652;-2.730;2023-07-29T08:52:01;21.70;74.40
81192;DHT22;70665;47.652;-2.730;2023-07-29T08:54:27;21.50;74.10
81192;DHT22;70665;47.652;-2.730;2023-07-29T08:56:54;21.60;75.60
81192;DHT22;70665;47.652;-2.730;2023-07-29T08:59:20;21.90;72.90
81192;DHT22;70665;47.652;-2.730;2023-07-29T09:01:47;21.80;71.10
81192;DHT22;70665;47.652;-2.730;2023-07-29T09:04:13;21.90;72.00
81192;DHT22;70665;47.652;-2.730;2023-07-29T09:06:39;21.90;70.40
81192;DHT22;70665;47.652;-2.730;2023-07-29T09:09:07;21.90;70.90
81192;DHT22;70665;47.652;-2.730;2023-07-29T09:11:33;22.00;73.10
81192;DHT22;70665;47.652;-2.730;2023-07-29T09:13:58;22.10;71.00
81192;DHT22;70665;47.652;-2.730;2023-07-29T09:16:24;22.30;72.30
81192;DHT22;70665;47.652;-2.730;2023-07-29T09:18:51;22.40;71.50
81192;DHT22;70665;47.652;-2.730;2023-07-29T09:21:22;22.50;70.50
81192;DHT22;70665;47.652;-2.730;2023-07-29T09:23:49;22.50;71.70
81192;DHT22;70665;47.652;-2.730;2023-07-29T09:26:22;22.50;70.40
81192;DHT22;70665;47.652;-2.730;2023-07-29T09:28:55;22.60;72.30
81192;DHT22;70665;47.652;-2.730;2023-07-29T09:31:24;22.70;71.20
81192;DHT22;70665;47.652;-2.730;2023-07-29T09:34:00;22.80;72.10
81192;DHT22;70665;47.652;-2.730;2023-07-29T09:36:26;22.80;71.50
81192;DHT22;70665;47.652;-2.730;2023-07-29T09:38:55;23.00;71.50
81192;DHT22;70665;47.652;-2.730;2023-07-29T09:41:28;23.00;66.50
81192;DHT22;70665;47.652;-2.730;2023-07-29T09:44:00;23.20;69.00
81192;DHT22;70665;47.652;-2.730;2023-07-29T09:46:32;23.10;65.90
81192;DHT22;70665;47.652;-2.730;2023-07-29T09:48:59;23.30;68.40
81192;DHT22;70665;47.652;-2.730;2023-07-29T09:51:24;23.40;68.30
81192;DHT22;70665;47.652;-2.730;2023-07-29T09:53:51;23.60;70.10
81192;DHT22;70665;47.652;-2.730;2023-07-29T09:56:25;23.60;65.10
81192;DHT22;70665;47.652;-2.730;2023-07-29T09:58:51;23.60;67.10
81192;DHT22;70665;47.652;-2.730;2023-07-29T10:01:17;23.40;65.00
81192;DHT22;70665;47.652;-2.730;2023-07-29T10:03:44;23.40;69.20
81192;DHT22;70665;47.652;-2.730;2023-07-29T10:06:11;23.10;67.00
81192;DHT22;70665;47.652;-2.730;2023-07-29T10:08:37;22.90;65.60
81192;DHT22;70665;47.652;-2.730;2023-07-29T10:11:08;23.00;68.30
81192;DHT22;70665;47.652;-2.730;2023-07-29T10:13:35;23.10;68.00
81192;DHT22;70665;47.652;-2.730;2023-07-29T10:16:01;23.10;68.10
81192;DHT22;70665;47.652;-2.730;2023-07-29T10:18:31;23.20;66.20
81192;DHT22;70665;47.652;-2.730;2023-07-29T10:20:58;23.30;67.80
81192;DHT22;70665;47.652;-2.730;2023-07-29T10:23:25;23.20;67.50
81192;DHT22;70665;47.652;-2.730;2023-07-29T10:26:10;23.20;69.50
81192;DHT22;70665;47.652;-2.730;2023-07-29T10:28:40;23.50;70.80
81192;DHT22;70665;47.652;-2.730;2023-07-29T10:31:06;23.80;69.60
81192;DHT22;70665;47.652;-2.730;2023-07-29T10:33:33;24.10;70.30
81192;DHT22;70665;47.652;-2.730;2023-07-29T10:35:59;24.00;67.20
81192;DHT22;70665;47.652;-2.730;2023-07-29T10:38:26;24.30;70.20
81192;DHT22;70665;47.652;-2.730;2023-07-29T10:40:56;24.30;67.90
81192;DHT22;70665;47.652;-2.730;2023-07-29T10:43:26;24.70;68.80
81192;DHT22;70665;47.652;-2.730;2023-07-29T10:45:52;24.90;65.90
81192;DHT22;70665;47.652;-2.730;2023-07-29T10:51:24;25.00;64.60
81192;DHT22;70665;47.652;-2.730;2023-07-29T10:54:13;25.00;65.60
81192;DHT22;70665;47.652;-2.730;2023-07-29T10:56:44;25.00;66.20
81192;DHT22;70665;47.652;-2.730;2023-07-29T11:01:39;24.60;65.40
81192;DHT22;70665;47.652;-2.730;2023-07-29T11:12:42;24.20;66.80
81192;DHT22;70665;47.652;-2.730;2023-07-29T11:17:55;24.40;64.10
81192;DHT22;70665;47.652;-2.730;2023-07-29T11:20:23;24.40;66.70
81192;DHT22;70665;47.652;-2.730;2023-07-29T11:22:49;24.30;66.80
81192;DHT22;70665;47.652;-2.730;2023-07-29T11:25:16;24.10;65.10
81192;DHT22;70665;47.652;-2.730;2023-07-29T11:27:42;24.10;65.00
81192;DHT22;70665;47.652;-2.730;2023-07-29T11:30:10;23.90;66.10
81192;DHT22;70665;47.652;-2.730;2023-07-29T11:32:38;23.80;64.50
81192;DHT22;70665;47.652;-2.730;2023-07-29T11:35:06;23.80;67.40
81192;DHT22;70665;47.652;-2.730;2023-07-29T11:37:36;23.70;64.70
81192;DHT22;70665;47.652;-2.730;2023-07-29T11:40:03;23.80;64.60
81192;DHT22;70665;47.652;-2.730;2023-07-29T11:42:34;24.10;64.00
81192;DHT22;70665;47.652;-2.730;2023-07-29T11:45:01;24.20;63.50
81192;DHT22;70665;47.652;-2.730;2023-07-29T11:47:28;24.50;64.60
81192;DHT22;70665;47.652;-2.730;2023-07-29T11:49:54;24.80;64.80
81192;DHT22;70665;47.652;-2.730;2023-07-29T11:52:23;25.00;61.50
81192;DHT22;70665;47.652;-2.730;2023-07-29T11:54:49;25.20;61.90
81192;DHT22;70665;47.652;-2.730;2023-07-29T11:57:16;25.50;61.70
81192;DHT22;70665;47.652;-2.730;2023-07-29T11:59:42;25.30;60.10
81192;DHT22;70665;47.652;-2.730;2023-07-29T12:02:21;24.90;60.50
81192;DHT22;70665;47.652;-2.730;2023-07-29T12:04:48;25.10;63.10
81192;DHT22;70665;47.652;-2.730;2023-07-29T12:07:16;25.30;64.20
81192;DHT22;70665;47.652;-2.730;2023-07-29T12:09:42;25.60;61.80
81192;DHT22;70665;47.652;-2.730;2023-07-29T12:12:08;25.60;61.90
81192;DHT22;70665;47.652;-2.730;2023-07-29T12:14:34;25.80;63.60
81192;DHT22;70665;47.652;-2.730;2023-07-29T12:17:05;25.50;57.60
81192;DHT22;70665;47.652;-2.730;2023-07-29T12:19:37;25.60;58.50
81192;DHT22;70665;47.652;-2.730;2023-07-29T12:22:07;25.80;60.70
81192;DHT22;70665;47.652;-2.730;2023-07-29T12:24:36;25.90;57.80
81192;DHT22;70665;47.652;-2.730;2023-07-29T12:27:01;26.20;61.70
81192;DHT22;70665;47.652;-2.730;2023-07-29T12:29:27;26.20;56.90
81192;DHT22;70665;47.652;-2.730;2023-07-29T12:32:03;26.40;54.00
81192;DHT22;70665;47.652;-2.730;2023-07-29T12:34:30;26.60;54.30
81192;DHT22;70665;47.652;-2.730;2023-07-29T12:36:58;26.60;53.40
81192;DHT22;70665;47.652;-2.730;2023-07-29T12:39:35;26.40;53.70
81192;DHT22;70665;47.652;-2.730;2023-07-29T12:42:02;26.70;53.20
81192;DHT22;70665;47.652;-2.730;2023-07-29T12:44:32;27.00;53.10
81192;DHT22;70665;47.652;-2.730;2023-07-29T12:47:00;26.60;53.20
81192;DHT22;70665;47.652;-2.730;2023-07-29T12:49:26;26.60;55.70
81192;DHT22;70665;47.652;-2.730;2023-07-29T12:51:53;26.60;58.00
81192;DHT22;70665;47.652;-2.730;2023-07-29T12:54:19;27.00;54.90
81192;DHT22;70665;47.652;-2.730;2023-07-29T12:56:44;27.40;54.10
81192;DHT22;70665;47.652;-2.730;2023-07-29T12:59:10;27.20;54.40
81192;DHT22;70665;47.652;-2.730;2023-07-29T13:01:36;27.20;56.30
81192;DHT22;70665;47.652;-2.730;2023-07-29T13:04:01;27.00;55.40
81192;DHT22;70665;47.652;-2.730;2023-07-29T13:06:27;26.80;55.50
81192;DHT22;70665;47.652;-2.730;2023-07-29T13:08:52;26.60;55.60
81192;DHT22;70665;47.652;-2.730;2023-07-29T13:11:18;26.50;56.50
81192;DHT22;70665;47.652;-2.730;2023-07-29T13:13:44;26.70;57.60
81192;DHT22;70665;47.652;-2.730;2023-07-29T13:16:11;27.40;58.30
81192;DHT22;70665;47.652;-2.730;2023-07-29T13:18:36;28.00;54.90
81192;DHT22;70665;47.652;-2.730;2023-07-29T13:21:02;28.60;52.20
81192;DHT22;70665;47.652;-2.730;2023-07-29T13:23:28;28.70;56.50
81192;DHT22;70665;47.652;-2.730;2023-07-29T13:25:57;28.80;52.50
81192;DHT22;70665;47.652;-2.730;2023-07-29T13:28:23;28.70;49.50
81192;DHT22;70665;47.652;-2.730;2023-07-29T13:30:49;28.80;52.30
81192;DHT22;70665;47.652;-2.730;2023-07-29T13:33:15;29.30;50.70
81192;DHT22;70665;47.652;-2.730;2023-07-29T13:35:40;28.90;49.40
81192;DHT22;70665;47.652;-2.730;2023-07-29T13:38:07;28.20;53.00
81192;DHT22;70665;47.652;-2.730;2023-07-29T13:40:33;28.00;54.40
81192;DHT22;70665;47.652;-2.730;2023-07-29T13:42:58;28.10;50.10
81192;DHT22;70665;47.652;-2.730;2023-07-29T13:45:24;27.70;51.30
81192;DHT22;70665;47.652;-2.730;2023-07-29T13:47:50;27.00;53.10
81192;DHT22;70665;47.652;-2.730;2023-07-29T13:50:16;26.70;54.30
81192;DHT22;70665;47.652;-2.730;2023-07-29T13:52:43;25.80;55.90
81192;DHT22;70665;47.652;-2.730;2023-07-29T13:55:09;25.50;57.40
81192;DHT22;70665;47.652;-2.730;2023-07-29T13:57:36;25.40;59.50
81192;DHT22;70665;47.652;-2.730;2023-07-29T14:00:02;25.50;57.80
81192;DHT22;70665;47.652;-2.730;2023-07-29T14:02:28;26.30;56.70
81192;DHT22;70665;47.652;-2.730;2023-07-29T14:04:56;27.90;56.60
81192;DHT22;70665;47.652;-2.730;2023-07-29T14:07:22;28.60;50.90
81192;DHT22;70665;47.652;-2.730;2023-07-29T14:09:47;29.00;50.10
81192;DHT22;70665;47.652;-2.730;2023-07-29T14:12:13;29.50;51.40
81192;DHT22;70665;47.652;-2.730;2023-07-29T14:14:41;29.20;50.60
81192;DHT22;70665;47.652;-2.730;2023-07-29T14:17:07;28.70;51.10
81192;DHT22;70665;47.652;-2.730;2023-07-29T14:19:34;28.10;52.90
81192;DHT22;70665;47.652;-2.730;2023-07-29T14:22:00;27.20;52.60
81192;DHT22;70665;47.652;-2.730;2023-07-29T14:24:25;26.60;53.80
81192;DHT22;70665;47.652;-2.730;2023-07-29T14:26:51;26.50;55.00
81192;DHT22;70665;47.652;-2.730;2023-07-29T14:29:17;26.70;56.90
81192;DHT22;70665;47.652;-2.730;2023-07-29T14:31:42;26.60;56.50
81192;DHT22;70665;47.652;-2.730;2023-07-29T14:34:08;26.30;56.60
81192;DHT22;70665;47.652;-2.730;2023-07-29T14:36:34;25.50;59.30
81192;DHT22;70665;47.652;-2.730;2023-07-29T14:38:59;25.10;60.90
81192;DHT22;70665;47.652;-2.730;2023-07-29T14:41:25;25.30;62.50
81192;DHT22;70665;47.652;-2.730;2023-07-29T14:43:51;25.20;63.80
81192;DHT22;70665;47.652;-2.730;2023-07-29T14:46:16;25.10;63.80
81192;DHT22;70665;47.652;-2.730;2023-07-29T14:48:42;24.90;64.00
81192;DHT22;70665;47.652;-2.730;2023-07-29T14:51:08;25.90;62.00
81192;DHT22;70665;47.652;-2.730;2023-07-29T14:53:33;26.70;60.90
81192;DHT22;70665;47.652;-2.730;2023-07-29T14:55:59;27.30;58.00
81192;DHT22;70665;47.652;-2.730;2023-07-29T14:58:25;27.20;58.00
81192;DHT22;70665;47.652;-2.730;2023-07-29T15:00:51;26.90;58.40
81192;DHT22;70665;47.652;-2.730;2023-07-29T15:03:17;28.60;53.60
81192;DHT22;70665;47.652;-2.730;2023-07-29T15:05:43;30.60;51.00
81192;DHT22;70665;47.652;-2.730;2023-07-29T15:08:09;31.60;48.70
81192;DHT22;70665;47.652;-2.730;2023-07-29T15:10:34;31.40;48.40
81192;DHT22;70665;47.652;-2.730;2023-07-29T15:13:00;30.30;50.40
81192;DHT22;70665;47.652;-2.730;2023-07-29T15:15:26;29.50;57.10
81192;DHT22;70665;47.652;-2.730;2023-07-29T15:17:51;29.10;54.00
81192;DHT22;70665;47.652;-2.730;2023-07-29T15:20:17;28.90;55.80
81192;DHT22;70665;47.652;-2.730;2023-07-29T15:22:43;29.60;54.60
81192;DHT22;70665;47.652;-2.730;2023-07-29T15:25:09;31.10;49.10
81192;DHT22;70665;47.652;-2.730;2023-07-29T15:27:35;31.90;46.10
81192;DHT22;70665;47.652;-2.730;2023-07-29T15:30:01;31.20;48.70
81192;DHT22;70665;47.652;-2.730;2023-07-29T15:32:26;29.90;53.40
81192;DHT22;70665;47.652;-2.730;2023-07-29T15:34:53;28.60;56.60